createdAt,value
2022-10-19T03:56:46.702Z,10.07
2022-10-19T04:00:12.726Z,10.07
2022-10-19T04:07:04.467Z,10.03
2022-10-19T04:10:28.498Z,10.01
2022-10-19T04:13:52.751Z,9.99
2022-10-19T04:17:16.044Z,9.98
2022-10-19T04:20:42.150Z,9.95
2022-10-19T04:24:07.865Z,9.94
2022-10-19T04:27:31.393Z,9.92
2022-10-19T04:30:56.503Z,9.91
2022-10-19T04:34:20.524Z,9.89
2022-10-19T04:37:43.821Z,9.89
2022-10-19T04:41:09.654Z,9.89
2022-10-19T04:44:32.856Z,9.90
2022-10-19T04:47:56.143Z,9.91
2022-10-19T04:51:19.896Z,9.91
2022-10-19T04:54:42.885Z,9.91
2022-10-19T04:58:05.959Z,9.92
2022-10-19T05:01:30.749Z,9.93
2022-10-19T05:04:54.346Z,9.92
2022-10-19T05:08:17.416Z,9.93
2022-10-19T05:11:40.544Z,9.94
2022-10-19T05:15:04.885Z,9.94
2022-10-19T05:18:28.953Z,9.95
2022-10-19T05:21:52.047Z,9.96
2022-10-19T05:25:15.391Z,9.96
2022-10-19T05:28:39.166Z,9.97
2022-10-19T05:32:02.217Z,9.97
2022-10-19T05:35:26.069Z,9.97
2022-10-19T05:38:51.035Z,9.96
2022-10-19T05:42:14.143Z,9.95
2022-10-19T05:45:37.722Z,9.95
2022-10-19T05:49:01.562Z,9.97
2022-10-19T05:52:24.832Z,9.99
2022-10-19T05:55:47.976Z,10.02
2022-10-19T05:59:15.222Z,10.04
2022-10-19T06:02:38.522Z,10.07
2022-10-19T06:06:03.358Z,10.09
2022-10-19T06:09:27.159Z,10.12
2022-10-19T06:12:50.358Z,10.16
2022-10-19T06:16:15.658Z,10.21
2022-10-19T06:19:39.161Z,10.25
2022-10-19T06:23:02.470Z,10.28
2022-10-19T06:26:26.564Z,10.32
2022-10-19T06:29:49.643Z,10.38
2022-10-19T06:33:12.857Z,10.42
2022-10-19T06:36:36.507Z,10.46
2022-10-19T06:40:03.597Z,10.50
2022-10-19T06:43:30.145Z,10.55
2022-10-19T06:46:53.568Z,10.59
2022-10-19T06:50:17.132Z,10.64
2022-10-19T06:53:40.670Z,10.70
2022-10-19T06:57:03.869Z,10.78
2022-10-19T07:00:26.983Z,10.85
2022-10-19T07:03:52.022Z,10.92
2022-10-19T07:07:15.112Z,11.00
2022-10-19T07:10:38.415Z,11.05
2022-10-19T07:14:01.482Z,11.10
2022-10-19T07:17:24.674Z,11.15
2022-10-19T07:20:55.494Z,11.20
2022-10-19T07:24:19.224Z,11.25
2022-10-19T07:27:42.584Z,11.29
2022-10-19T07:31:08.356Z,11.33
2022-10-19T07:34:31.536Z,11.38
2022-10-19T07:37:54.626Z,11.40
2022-10-19T07:41:19.856Z,11.45
2022-10-19T07:44:43.128Z,11.57
2022-10-19T07:48:06.861Z,11.70
2022-10-19T07:51:30.163Z,11.78
2022-10-19T07:54:54.730Z,11.88
2022-10-19T07:58:17.753Z,11.94
2022-10-19T08:01:41.625Z,11.97
2022-10-19T08:05:07.996Z,12.02
2022-10-19T08:08:33.791Z,12.12
2022-10-19T08:11:57.598Z,12.20
2022-10-19T08:15:20.797Z,12.20
2022-10-19T08:18:43.881Z,12.25
2022-10-19T08:22:07.219Z,12.34
2022-10-19T08:25:30.502Z,12.41
2022-10-19T08:28:58.189Z,12.52
2022-10-19T08:32:21.532Z,12.53
2022-10-19T08:35:44.886Z,12.41
2022-10-19T08:39:11.832Z,12.35
2022-10-19T08:42:47.142Z,12.36
2022-10-19T08:46:19.428Z,12.41
2022-10-19T08:49:42.835Z,12.48
2022-10-19T08:53:11.571Z,12.61
2022-10-19T08:56:50.561Z,12.74
2022-10-19T09:00:23.860Z,12.86
2022-10-19T09:03:55.309Z,12.93
2022-10-19T09:07:26.090Z,12.94
2022-10-19T09:10:50.602Z,12.92
2022-10-19T09:14:22.067Z,12.97
2022-10-19T09:17:45.167Z,13.18
2022-10-19T09:21:14.824Z,13.30
2022-10-19T09:24:42.614Z,13.27
2022-10-19T09:28:19.768Z,13.24
2022-10-19T09:31:42.908Z,13.20
2022-10-19T09:35:17.397Z,13.15
2022-10-19T09:38:40.539Z,13.12
2022-10-19T09:42:20.614Z,13.14
2022-10-19T09:45:49.462Z,13.19
2022-10-19T09:49:12.643Z,13.24
2022-10-19T09:52:38.108Z,13.31
2022-10-19T09:56:05.974Z,13.34
2022-10-19T09:59:33.435Z,13.38
2022-10-19T10:02:56.724Z,13.35
2022-10-19T10:06:21.977Z,13.34
2022-10-19T10:09:45.457Z,13.36
2022-10-19T10:13:16.369Z,13.46
2022-10-19T10:16:39.623Z,13.63
2022-10-19T10:20:17.623Z,13.73
2022-10-19T10:23:41.183Z,13.71
2022-10-19T10:27:06.109Z,13.64
2022-10-19T10:30:35.378Z,13.54
2022-10-19T10:34:10.716Z,13.48
2022-10-19T10:37:46.371Z,13.44
2022-10-19T10:41:15.579Z,13.47
2022-10-19T10:44:45.111Z,13.55
2022-10-19T10:48:20.173Z,13.53
2022-10-19T10:51:50.649Z,13.56
2022-10-19T10:55:18.370Z,13.58
2022-10-19T10:58:48.202Z,13.16
2022-10-19T11:02:19.406Z,12.30
2022-10-19T11:05:45.574Z,11.75
2022-10-19T11:09:17.036Z,11.43
2022-10-19T11:12:44.928Z,11.13
2022-10-19T11:16:14.612Z,10.87
2022-10-19T11:19:41.415Z,10.64
2022-10-19T11:23:13.466Z,10.50
2022-10-19T11:26:48.613Z,10.54
2022-10-19T11:30:14.683Z,10.65
2022-10-19T11:33:53.371Z,10.77
2022-10-19T11:37:24.789Z,11.00
2022-10-19T11:41:17.855Z,11.19
2022-10-19T11:44:57.145Z,11.44
2022-10-19T11:48:37.666Z,11.68
2022-10-19T11:52:07.282Z,11.86
2022-10-19T11:55:40.938Z,12.12
2022-10-19T11:59:14.915Z,12.33
2022-10-19T12:03:06.373Z,12.41
2022-10-19T12:06:35.919Z,12.53
2022-10-19T12:10:02.999Z,12.74
2022-10-19T12:13:33.949Z,12.85
2022-10-19T12:17:01.869Z,12.93
2022-10-19T12:20:32.301Z,12.98
2022-10-19T12:23:58.543Z,12.94
2022-10-19T12:27:29.446Z,13.06
2022-10-19T12:30:53.373Z,13.22
2022-10-19T12:34:27.271Z,13.41
2022-10-19T12:37:57.571Z,13.53
2022-10-19T12:41:29.051Z,13.67
2022-10-19T12:45:14.332Z,13.81
2022-10-19T12:48:38.620Z,14.06
2022-10-19T12:52:02.966Z,14.08
2022-10-19T12:55:33.947Z,13.89
2022-10-19T12:59:00.682Z,13.66
2022-10-19T13:02:28.115Z,13.39
2022-10-19T13:05:57.366Z,13.21
2022-10-19T13:09:26.117Z,13.09
2022-10-19T13:12:50.374Z,13.08
2022-10-19T13:16:48.226Z,13.06
2022-10-19T13:20:48.056Z,13.00
2022-10-19T13:24:30.439Z,12.92
2022-10-19T13:27:55.183Z,12.84
2022-10-19T13:31:27.663Z,12.78
2022-10-19T13:34:50.774Z,12.73
2022-10-19T13:38:31.514Z,12.67
2022-10-19T13:41:56.430Z,12.60
2022-10-19T13:45:23.559Z,12.63
2022-10-19T13:49:17.144Z,12.66
2022-10-19T13:53:27.282Z,12.67
2022-10-19T13:57:05.778Z,12.74
2022-10-19T14:00:34.657Z,12.89
2022-10-19T14:04:17.202Z,13.01
2022-10-19T14:07:49.037Z,13.05
2022-10-19T14:11:16.692Z,13.06
2022-10-19T14:18:24.156Z,13.23
2022-10-19T14:21:47.552Z,13.27
2022-10-19T14:25:19.886Z,13.21
2022-10-19T14:28:43.180Z,13.18
2022-10-19T14:32:08.353Z,13.07
2022-10-19T14:35:33.864Z,12.91
2022-10-19T14:38:57.294Z,12.71
2022-10-19T14:42:20.355Z,12.54
2022-10-19T14:45:43.492Z,12.42
2022-10-19T14:49:09.926Z,12.29
2022-10-19T14:52:37.934Z,12.19
2022-10-19T14:56:05.821Z,12.13
2022-10-19T14:59:31.865Z,12.05
2022-10-19T15:03:00.292Z,12.00
2022-10-19T15:06:28.009Z,11.96
2022-10-19T15:09:54.659Z,11.91
2022-10-19T15:13:24.913Z,11.86
2022-10-19T15:16:52.205Z,11.78
2022-10-19T15:20:25.011Z,11.72
2022-10-19T15:23:49.143Z,11.62
2022-10-19T15:27:20.825Z,11.53
2022-10-19T15:30:43.890Z,11.43
2022-10-19T15:34:21.666Z,11.33
2022-10-19T15:37:47.888Z,11.21
2022-10-19T15:41:19.015Z,11.12
2022-10-19T15:44:43.758Z,11.03
2022-10-19T15:48:26.135Z,10.94
2022-10-19T15:51:50.256Z,10.82
2022-10-19T15:55:16.612Z,10.70
2022-10-19T15:58:39.646Z,10.58
2022-10-19T16:02:12.329Z,10.47
2022-10-19T16:05:36.560Z,10.34
2022-10-19T16:09:01.086Z,10.21
2022-10-19T16:12:26.506Z,10.08
2022-10-19T16:15:56.783Z,9.94
2022-10-19T16:19:33.411Z,9.81
2022-10-19T16:22:57.394Z,9.70
2022-10-19T16:26:21.780Z,9.59
2022-10-19T16:29:45.287Z,9.48
2022-10-19T16:33:08.621Z,9.39
2022-10-19T16:36:31.765Z,9.30
2022-10-19T16:39:55.018Z,9.19
2022-10-19T16:43:17.984Z,9.09
2022-10-19T16:46:41.421Z,8.97
2022-10-19T16:50:06.748Z,8.85
2022-10-19T16:53:29.983Z,8.73
2022-10-19T16:56:54.831Z,8.61
2022-10-19T17:00:18.060Z,8.48
2022-10-19T17:03:41.119Z,8.36
2022-10-19T17:07:04.720Z,8.25
2022-10-19T17:10:28.105Z,8.15
2022-10-19T17:13:53.680Z,8.05
2022-10-19T17:17:17.048Z,7.95
2022-10-19T17:20:40.182Z,7.84
2022-10-19T17:24:05.437Z,7.74
2022-10-19T17:27:28.639Z,7.66
2022-10-19T17:30:52.123Z,7.60
2022-10-19T17:34:15.266Z,7.53
2022-10-19T17:37:39.011Z,7.51
2022-10-19T17:41:04.287Z,7.51
2022-10-19T17:44:28.143Z,7.50
2022-10-19T17:47:51.252Z,7.47
2022-10-19T17:51:17.232Z,7.40
2022-10-19T17:54:48.858Z,7.32
2022-10-19T17:58:23.487Z,7.25
2022-10-19T18:01:46.730Z,7.19
2022-10-19T18:05:10.686Z,7.15
2022-10-19T18:08:36.878Z,7.09
2022-10-19T18:12:03.469Z,7.02
2022-10-19T18:15:29.471Z,6.96
2022-10-19T18:18:56.264Z,6.95
2022-10-19T18:22:21.136Z,6.96
2022-10-19T18:25:53.818Z,6.92
2022-10-19T18:29:20.764Z,6.85
2022-10-19T18:32:43.836Z,6.79
2022-10-19T18:36:09.792Z,6.76
2022-10-19T18:39:32.968Z,6.74
2022-10-19T18:42:56.588Z,6.71
2022-10-19T18:46:20.759Z,6.67
2022-10-19T18:49:43.804Z,6.64
2022-10-19T18:53:06.867Z,6.59
2022-10-19T18:56:32.618Z,6.52
2022-10-19T18:59:55.792Z,6.44
2022-10-19T19:03:19.893Z,6.36
2022-10-19T19:06:42.952Z,6.27
2022-10-19T19:10:07.613Z,6.19
2022-10-19T19:13:30.962Z,6.10
2022-10-19T19:16:54.240Z,6.03
2022-10-19T19:20:17.622Z,5.95
2022-10-19T19:23:40.729Z,5.90
2022-10-19T19:27:04.247Z,5.85
2022-10-19T19:30:27.612Z,5.81
2022-10-19T19:33:51.536Z,5.75
2022-10-19T19:37:15.212Z,5.72
2022-10-19T19:40:40.730Z,5.75
2022-10-19T19:44:04.238Z,5.78
2022-10-19T19:47:27.379Z,5.79
2022-10-19T19:50:50.711Z,5.81
2022-10-19T19:54:13.936Z,5.81
2022-10-19T19:57:37.386Z,5.77
2022-10-19T20:01:12.121Z,5.71
2022-10-19T20:04:36.514Z,5.64
2022-10-19T20:08:00.723Z,5.59
2022-10-19T20:11:25.433Z,5.53
2022-10-19T20:14:48.545Z,5.46
2022-10-19T20:18:11.566Z,5.39
2022-10-19T20:21:34.583Z,5.33
2022-10-19T20:24:57.626Z,5.28
2022-10-19T20:28:21.348Z,5.23
2022-10-19T20:31:44.669Z,5.16
2022-10-19T20:35:08.798Z,5.11
2022-10-19T20:38:32.089Z,5.06
2022-10-19T20:41:55.221Z,5.01
2022-10-19T20:45:18.381Z,4.93
2022-10-19T20:48:41.571Z,4.88
2022-10-19T20:52:04.860Z,4.82
2022-10-19T20:55:27.965Z,4.77
2022-10-19T20:58:55.685Z,4.72
2022-10-19T21:02:18.815Z,4.67
2022-10-19T21:05:41.839Z,4.63
2022-10-19T21:09:05.270Z,4.59
2022-10-19T21:12:28.360Z,4.55
2022-10-19T21:15:51.458Z,4.50
2022-10-19T21:19:17.167Z,4.46
2022-10-19T21:22:41.087Z,4.42
2022-10-19T21:26:04.468Z,4.38
2022-10-19T21:29:27.680Z,4.34
2022-10-19T21:32:50.786Z,4.32
2022-10-19T21:36:15.110Z,4.31
2022-10-19T21:39:38.923Z,4.27
2022-10-19T21:43:02.388Z,4.20
2022-10-19T21:46:26.233Z,4.12
2022-10-19T21:49:49.279Z,4.01
2022-10-19T21:53:12.290Z,3.93
2022-10-19T21:56:36.436Z,3.85
2022-10-19T21:59:59.796Z,3.76
2022-10-19T22:03:22.822Z,3.67
2022-10-19T22:06:46.763Z,3.57
2022-10-19T22:10:10.418Z,3.47
2022-10-19T22:13:34.227Z,3.38
2022-10-19T22:16:57.338Z,3.28
2022-10-19T22:20:20.645Z,3.20
2022-10-19T22:23:44.580Z,3.14
2022-10-19T22:27:07.988Z,3.07
2022-10-19T22:30:31.267Z,3.01
2022-10-19T22:33:54.399Z,2.97
2022-10-19T22:37:17.623Z,2.93
2022-10-19T22:40:40.665Z,2.88
2022-10-19T22:44:04.124Z,2.79
2022-10-19T22:47:27.442Z,2.73
